createdAt,value
2023-02-16T00:00:19.575Z,6.70
2023-02-16T00:02:46.874Z,6.43
2023-02-16T00:05:33.452Z,6.30
2023-02-16T00:08:01.552Z,6.40
2023-02-16T00:10:34.196Z,6.23
2023-02-16T00:13:21.021Z,6.47
2023-02-16T00:15:48.264Z,6.40
2023-02-16T00:18:20.407Z,6.33
2023-02-16T00:20:48.942Z,6.87
2023-02-16T00:23:16.148Z,7.97
2023-02-16T00:25:43.630Z,8.33
2023-02-16T00:28:18.099Z,5.77
2023-02-16T00:30:45.838Z,5.40
2023-02-16T00:33:17.826Z,5.73
2023-02-16T00:35:45.345Z,6.37
2023-02-16T00:38:13.482Z,5.80
2023-02-16T00:40:41.935Z,6.97
2023-02-16T00:43:26.443Z,5.73
2023-02-16T00:45:54.863Z,6.47
2023-02-16T00:48:23.648Z,5.97
2023-02-16T00:50:50.845Z,6.43
2023-02-16T00:53:18.068Z,4.97
2023-02-16T00:55:45.461Z,5.50
2023-02-16T00:58:31.199Z,6.27
2023-02-16T01:01:08.209Z,5.33
2023-02-16T01:03:36.770Z,5.07
2023-02-16T01:06:22.330Z,4.97
2023-02-16T01:09:07.849Z,4.70
2023-02-16T01:11:35.071Z,5.00
2023-02-16T01:14:02.409Z,5.30
2023-02-16T01:16:47.826Z,6.50
2023-02-16T01:19:15.053Z,5.70
2023-02-16T01:21:43.441Z,6.30
2023-02-16T01:24:10.637Z,4.87
2023-02-16T01:26:40.825Z,5.27
2023-02-16T01:29:14.202Z,4.40
2023-02-16T01:31:41.618Z,5.70
2023-02-16T01:34:09.374Z,5.67
2023-02-16T01:36:45.418Z,5.23
2023-02-16T01:39:15.353Z,5.00
2023-02-16T01:41:59.485Z,4.20
2023-02-16T01:44:49.810Z,5.47
2023-02-16T01:47:38.125Z,5.70
2023-02-16T01:50:16.872Z,4.60
2023-02-16T01:52:53.903Z,4.97
2023-02-16T01:55:29.754Z,5.57
2023-02-16T01:58:04.545Z,5.13
2023-02-16T02:00:51.991Z,4.70
2023-02-16T02:03:52.194Z,3.67
2023-02-16T02:06:38.110Z,3.53
2023-02-16T02:09:20.618Z,4.33
2023-02-16T02:12:00.486Z,4.10
2023-02-16T02:14:32.820Z,3.80
2023-02-16T02:17:05.996Z,3.93
2023-02-16T02:19:43.420Z,3.90
2023-02-16T02:22:51.046Z,4.17
2023-02-16T02:25:46.535Z,4.03
2023-02-16T02:28:33.633Z,3.80
2023-02-16T02:31:07.179Z,4.07
2023-02-16T02:34:28.365Z,3.93
2023-02-16T02:37:27.116Z,2.97
2023-02-16T02:40:26.530Z,3.77
2023-02-16T02:43:08.730Z,3.00
2023-02-16T02:45:44.057Z,3.30
2023-02-16T02:48:11.602Z,4.30
2023-02-16T02:51:17.453Z,3.77
2023-02-16T02:54:18.573Z,3.00
2023-02-16T02:57:36.671Z,3.30
2023-02-16T03:00:41.227Z,3.00
2023-02-16T03:03:17.833Z,3.10
2023-02-16T03:06:01.030Z,4.10
2023-02-16T03:08:31.813Z,3.47
2023-02-16T03:11:24.035Z,3.77
2023-02-16T03:13:59.588Z,4.30
2023-02-16T03:16:40.888Z,3.90
2023-02-16T03:19:30.642Z,3.83
2023-02-16T03:22:17.619Z,3.70
2023-02-16T03:25:04.385Z,3.93
2023-02-16T03:28:00.872Z,3.13
2023-02-16T03:30:29.374Z,3.60
2023-02-16T03:32:56.767Z,3.70
2023-02-16T03:35:24.741Z,2.70
2023-02-16T03:37:52.114Z,3.40
2023-02-16T03:40:28.632Z,3.40
2023-02-16T03:43:02.090Z,3.33
2023-02-16T03:45:30.020Z,4.13
2023-02-16T03:47:57.337Z,3.63
2023-02-16T03:50:26.531Z,3.80
2023-02-16T03:53:06.659Z,3.57
2023-02-16T03:55:39.860Z,4.20
2023-02-16T03:58:09.249Z,3.40
2023-02-16T04:00:37.689Z,3.67
2023-02-16T04:03:05.590Z,3.47
2023-02-16T04:05:33.459Z,3.80
2023-02-16T04:08:00.969Z,3.10
2023-02-16T04:10:28.643Z,4.00
2023-02-16T04:12:55.826Z,4.00
2023-02-16T04:15:26.400Z,3.73
2023-02-16T04:17:54.311Z,3.20
2023-02-16T04:20:24.600Z,2.70
2023-02-16T04:22:51.821Z,2.60
2023-02-16T04:25:19.466Z,4.07
2023-02-16T04:27:47.543Z,2.93
2023-02-16T04:30:17.687Z,2.70
2023-02-16T04:32:45.136Z,2.80
2023-02-16T04:35:12.382Z,3.00
2023-02-16T04:37:39.688Z,3.40
2023-02-16T04:40:08.432Z,3.67
2023-02-16T04:42:35.703Z,3.37
2023-02-16T04:45:02.895Z,3.53
2023-02-16T04:47:30.078Z,2.90
2023-02-16T04:49:57.215Z,3.03
2023-02-16T04:52:24.407Z,2.80
2023-02-16T04:54:51.537Z,3.43
2023-02-16T04:57:19.665Z,2.90
2023-02-16T04:59:46.983Z,2.90
2023-02-16T05:02:14.129Z,3.23
2023-02-16T05:04:42.340Z,3.10
2023-02-16T05:07:09.692Z,3.37
2023-02-16T05:09:37.029Z,3.10
2023-02-16T05:12:22.653Z,3.90
2023-02-16T05:14:50.084Z,3.10
2023-02-16T05:17:27.185Z,3.80
2023-02-16T05:19:59.504Z,3.00
2023-02-16T05:22:28.966Z,2.90
2023-02-16T05:24:56.138Z,3.13
2023-02-16T05:27:27.895Z,3.77
2023-02-16T05:29:55.312Z,2.87
2023-02-16T05:32:22.673Z,3.03
2023-02-16T05:34:49.901Z,3.10
2023-02-16T05:37:18.375Z,3.40
2023-02-16T05:39:46.048Z,3.30
2023-02-16T05:42:13.373Z,2.60
2023-02-16T05:44:40.625Z,2.77
2023-02-16T05:47:07.894Z,2.60
2023-02-16T05:49:35.102Z,3.67
2023-02-16T05:52:02.568Z,3.10
2023-02-16T05:54:29.774Z,3.57
2023-02-16T05:56:56.971Z,2.80
2023-02-16T05:59:24.087Z,2.40
2023-02-16T06:01:52.402Z,2.93
2023-02-16T06:04:21.151Z,3.33
2023-02-16T06:06:48.918Z,3.10
2023-02-16T06:09:16.226Z,3.43
2023-02-16T06:11:43.637Z,2.80
2023-02-16T06:14:14.414Z,4.30
2023-02-16T06:16:44.505Z,3.20
2023-02-16T06:19:13.255Z,3.50
2023-02-16T06:21:41.006Z,3.90
2023-02-16T06:24:10.694Z,5.03
2023-02-16T06:26:38.256Z,3.67
2023-02-16T06:29:06.020Z,3.50
2023-02-16T06:31:35.895Z,3.33
2023-02-16T06:34:04.234Z,3.57
2023-02-16T06:36:31.725Z,2.77
2023-02-16T06:38:58.915Z,4.07
2023-02-16T06:41:32.113Z,2.90
2023-02-16T06:44:01.297Z,2.43
2023-02-16T06:46:28.799Z,2.90
2023-02-16T06:48:56.562Z,2.70
2023-02-16T06:51:23.832Z,3.03
2023-02-16T06:53:51.083Z,3.30
2023-02-16T06:56:18.386Z,2.50
2023-02-16T06:58:45.533Z,2.67
2023-02-16T07:01:12.802Z,1.90
2023-02-16T07:03:40.144Z,3.27
2023-02-16T07:06:07.541Z,2.90
2023-02-16T07:08:35.857Z,2.37
2023-02-16T07:11:03.992Z,3.50
2023-02-16T07:13:31.404Z,2.80
2023-02-16T07:15:58.746Z,3.40
2023-02-16T07:18:25.924Z,3.10
2023-02-16T07:20:53.116Z,2.87
2023-02-16T07:23:21.222Z,3.20
2023-02-16T07:25:48.371Z,3.40
2023-02-16T07:28:15.782Z,3.97
2023-02-16T07:30:43.293Z,3.93
2023-02-16T07:33:10.984Z,3.40
2023-02-16T07:35:38.594Z,4.10
2023-02-16T07:38:06.406Z,2.80
2023-02-16T07:40:33.825Z,3.87
2023-02-16T07:43:02.714Z,4.40
2023-02-16T07:45:30.181Z,4.90
2023-02-16T07:47:57.370Z,4.17
2023-02-16T07:50:24.868Z,4.57
2023-02-16T07:52:52.282Z,4.40
2023-02-16T07:55:19.486Z,4.87
2023-02-16T07:57:49.458Z,5.27
2023-02-16T08:00:17.134Z,4.10
2023-02-16T08:02:45.423Z,5.13
2023-02-16T08:05:12.645Z,5.37
2023-02-16T08:07:41.044Z,4.00
2023-02-16T08:10:08.740Z,4.73
2023-02-16T08:12:37.367Z,4.83
2023-02-16T08:15:04.889Z,4.50
2023-02-16T08:17:32.078Z,4.57
2023-02-16T08:19:59.273Z,4.37
2023-02-16T08:22:26.561Z,3.70
2023-02-16T08:24:54.046Z,3.90
2023-02-16T08:27:21.416Z,4.47
2023-02-16T08:29:49.248Z,4.77
2023-02-16T08:32:16.606Z,4.40
2023-02-16T08:34:43.885Z,3.70
2023-02-16T08:37:13.516Z,3.90
2023-02-16T08:39:41.506Z,4.93
2023-02-16T08:42:12.347Z,4.80
2023-02-16T08:44:40.913Z,5.03
2023-02-16T08:47:09.563Z,4.60
2023-02-16T08:49:37.076Z,5.23
2023-02-16T08:52:05.359Z,5.07
2023-02-16T08:54:33.492Z,5.10
2023-02-16T08:57:02.963Z,5.07
2023-02-16T08:59:30.858Z,5.37
2023-02-16T09:01:59.239Z,5.40
2023-02-16T09:04:29.132Z,5.13
2023-02-16T09:06:58.206Z,4.80
2023-02-16T09:09:26.525Z,4.30
2023-02-16T09:11:54.236Z,4.60
2023-02-16T09:14:23.032Z,4.80
2023-02-16T09:16:50.545Z,5.67
2023-02-16T09:19:20.519Z,5.77
2023-02-16T09:21:50.777Z,5.30
2023-02-16T09:24:19.179Z,5.50
2023-02-16T09:26:46.442Z,5.30
2023-02-16T09:29:14.787Z,4.37
2023-02-16T09:31:44.304Z,3.87
2023-02-16T09:34:21.228Z,3.93
2023-02-16T09:36:48.794Z,3.97
2023-02-16T09:39:17.174Z,4.23
2023-02-16T09:42:03.829Z,3.07
2023-02-16T09:44:53.144Z,2.70
2023-02-16T09:47:26.019Z,2.43
2023-02-16T09:49:56.436Z,3.40
2023-02-16T09:52:37.195Z,4.63
2023-02-16T09:55:19.111Z,3.40
2023-02-16T09:58:08.142Z,4.93
2023-02-16T10:00:38.214Z,4.27
2023-02-16T10:03:26.012Z,3.60
2023-02-16T10:06:02.598Z,3.70
2023-02-16T10:08:38.951Z,3.97
2023-02-16T10:11:36.485Z,4.10
2023-02-16T10:14:19.733Z,3.53
2023-02-16T10:16:52.246Z,4.83
2023-02-16T10:19:39.698Z,4.87
2023-02-16T10:22:13.150Z,5.70
2023-02-16T10:24:57.771Z,4.97
2023-02-16T10:27:32.813Z,5.10
2023-02-16T10:29:59.961Z,4.67
2023-02-16T10:32:33.936Z,4.67
2023-02-16T10:35:20.620Z,5.00
2023-02-16T10:38:02.650Z,5.20
2023-02-16T10:40:52.136Z,4.10
2023-02-16T10:43:42.398Z,5.03
2023-02-16T10:46:15.385Z,3.53
2023-02-16T10:48:43.262Z,4.20
2023-02-16T10:51:16.768Z,4.17
2023-02-16T10:53:53.392Z,4.10
2023-02-16T10:56:32.588Z,3.47
2023-02-16T10:59:01.657Z,4.03
2023-02-16T11:01:43.007Z,3.93
2023-02-16T11:04:30.805Z,3.37
2023-02-16T11:07:06.504Z,3.77
2023-02-16T11:09:33.703Z,3.03
2023-02-16T11:12:01.332Z,3.97
2023-02-16T11:14:31.181Z,3.73
2023-02-16T11:17:11.281Z,2.90
2023-02-16T11:19:41.456Z,4.03
2023-02-16T11:22:28.897Z,2.90
2023-02-16T11:24:56.499Z,2.83
2023-02-16T11:27:24.581Z,3.30
2023-02-16T11:30:11.671Z,3.07
2023-02-16T11:32:38.869Z,2.77
2023-02-16T11:35:09.931Z,2.80
2023-02-16T11:37:39.939Z,2.63
2023-02-16T11:40:23.188Z,2.37
2023-02-16T11:42:59.444Z,2.63
2023-02-16T11:45:32.955Z,2.70
2023-02-16T11:48:12.306Z,2.70
2023-02-16T11:51:02.884Z,2.30
2023-02-16T11:53:33.917Z,2.27
2023-02-16T11:56:18.120Z,2.50
2023-02-16T11:58:45.380Z,2.47
2023-02-16T12:01:15.201Z,2.50
2023-02-16T12:04:16.791Z,2.60
2023-02-16T12:06:56.246Z,2.50
2023-02-16T12:09:41.423Z,2.33
2023-02-16T12:12:19.448Z,2.20
2023-02-16T12:14:56.399Z,2.67
2023-02-16T12:17:27.892Z,3.37
2023-02-16T12:20:30.290Z,2.83
2023-02-16T12:23:10.954Z,2.93
2023-02-16T12:25:46.470Z,2.30
2023-02-16T12:28:39.976Z,2.23
2023-02-16T12:31:29.350Z,2.10
2023-02-16T12:33:56.415Z,2.30
2023-02-16T12:36:57.469Z,3.03
2023-02-16T12:39:40.953Z,2.37
2023-02-16T12:42:29.985Z,2.30
2023-02-16T12:45:03.228Z,2.57
2023-02-16T12:47:36.586Z,2.57
2023-02-16T12:50:08.210Z,2.10
2023-02-16T12:52:42.895Z,1.80
2023-02-16T12:55:33.316Z,1.93
2023-02-16T12:58:15.746Z,1.30
2023-02-16T13:01:23.618Z,1.37
2023-02-16T13:04:03.581Z,1.23
2023-02-16T13:06:46.379Z,1.10
2023-02-16T13:09:13.465Z,2.00
2023-02-16T13:11:50.035Z,1.80
2023-02-16T13:14:21.961Z,1.90
2023-02-16T13:17:24.487Z,1.93
2023-02-16T13:19:52.405Z,1.60
2023-02-16T13:22:53.901Z,1.60
2023-02-16T13:25:43.093Z,1.33
2023-02-16T13:28:16.752Z,2.00
2023-02-16T13:31:04.703Z,1.70
2023-02-16T13:33:52.816Z,2.23
2023-02-16T13:36:52.458Z,1.53
2023-02-16T13:39:41.068Z,1.60
2023-02-16T13:42:20.112Z,2.07
2023-02-16T13:44:51.958Z,1.90
2023-02-16T13:47:34.767Z,1.97
2023-02-16T13:50:07.094Z,1.73
2023-02-16T13:52:41.284Z,2.27
2023-02-16T13:55:21.824Z,1.73
2023-02-16T13:57:53.115Z,1.80
2023-02-16T14:00:38.270Z,1.70
2023-02-16T14:03:32.729Z,2.20
2023-02-16T14:06:32.978Z,2.03
2023-02-16T14:09:12.405Z,2.77
2023-02-16T14:11:59.428Z,2.33
2023-02-16T14:14:31.462Z,2.20
2023-02-16T14:17:25.293Z,2.83
2023-02-16T14:20:02.259Z,2.80
2023-02-16T14:22:38.617Z,2.43
2023-02-16T14:25:30.871Z,2.80
2023-02-16T14:28:01.763Z,2.73
2023-02-16T14:30:36.841Z,2.80
2023-02-16T14:33:13.064Z,2.50
2023-02-16T14:35:44.208Z,3.37
2023-02-16T14:38:35.558Z,2.83
2023-02-16T14:41:08.169Z,3.60
2023-02-16T14:43:40.186Z,3.80
2023-02-16T14:46:37.906Z,3.73
2023-02-16T14:49:24.124Z,3.70
2023-02-16T14:52:00.806Z,3.20
2023-02-16T14:54:56.010Z,3.90
2023-02-16T14:57:51.989Z,3.70
2023-02-16T15:00:30.557Z,4.80
2023-02-16T15:03:18.646Z,4.87
2023-02-16T15:06:06.277Z,5.40
2023-02-16T15:08:38.099Z,5.13
2023-02-16T15:11:29.166Z,5.10
2023-02-16T15:14:08.253Z,4.00
2023-02-16T15:16:40.543Z,4.87
2023-02-16T15:19:12.170Z,4.50
2023-02-16T15:21:39.874Z,5.13
2023-02-16T15:24:20.743Z,5.13
2023-02-16T15:26:56.440Z,5.27
2023-02-16T15:29:27.281Z,4.10
2023-02-16T15:31:55.898Z,3.93
2023-02-16T15:34:29.932Z,4.77
2023-02-16T15:36:57.358Z,4.77
2023-02-16T15:39:42.987Z,5.13
2023-02-16T15:42:25.007Z,5.90
2023-02-16T15:44:52.207Z,4.97
2023-02-16T15:47:26.072Z,4.37
2023-02-16T15:49:54.230Z,4.60
2023-02-16T15:52:34.161Z,5.07
2023-02-16T15:55:04.354Z,4.57
2023-02-16T15:57:37.251Z,4.20
2023-02-16T16:00:23.236Z,4.40
2023-02-16T16:02:54.327Z,4.13
2023-02-16T16:05:33.051Z,4.53
2023-02-16T16:08:01.326Z,3.87
2023-02-16T16:10:37.548Z,3.87
2023-02-16T16:13:07.509Z,3.30
2023-02-16T16:15:40.836Z,3.30
2023-02-16T16:18:44.744Z,3.50
2023-02-16T16:21:26.928Z,3.27
2023-02-16T16:24:06.498Z,3.67
2023-02-16T16:26:49.944Z,3.50
2023-02-16T16:29:34.036Z,3.90
2023-02-16T16:32:02.159Z,3.80
2023-02-16T16:34:40.337Z,3.20
2023-02-16T16:37:21.654Z,4.00
2023-02-16T16:40:00.906Z,2.90
2023-02-16T16:42:28.617Z,2.70
2023-02-16T16:45:26.537Z,3.03
2023-02-16T16:48:01.806Z,3.90
2023-02-16T16:50:38.977Z,5.40
2023-02-16T16:53:31.734Z,4.33
2023-02-16T16:56:01.180Z,4.23
2023-02-16T16:58:29.257Z,4.30
2023-02-16T17:00:56.350Z,4.10
2023-02-16T17:03:23.746Z,3.80
2023-02-16T17:05:50.850Z,2.83
2023-02-16T17:08:18.125Z,3.00
2023-02-16T17:10:45.333Z,2.97
2023-02-16T17:13:20.078Z,3.23
2023-02-16T17:16:06.889Z,3.50
2023-02-16T17:18:34.372Z,3.13
2023-02-16T17:21:01.588Z,3.20
2023-02-16T17:23:28.700Z,3.33
2023-02-16T17:25:55.906Z,3.70
2023-02-16T17:28:23.242Z,4.60
2023-02-16T17:30:50.456Z,4.97
2023-02-16T17:33:17.751Z,3.90
2023-02-16T17:35:45.068Z,4.10
2023-02-16T17:38:18.225Z,3.17
2023-02-16T17:40:48.694Z,3.17
2023-02-16T17:43:16.693Z,3.93
2023-02-16T17:45:44.385Z,2.77
2023-02-16T17:48:19.426Z,3.17
2023-02-16T17:50:49.429Z,3.13
2023-02-16T17:53:19.129Z,2.67
2023-02-16T17:55:48.708Z,3.03
2023-02-16T17:58:16.638Z,3.40
2023-02-16T18:00:45.217Z,3.37
2023-02-16T18:03:12.493Z,3.37
2023-02-16T18:05:40.195Z,3.20
2023-02-16T18:08:07.574Z,3.47
2023-02-16T18:10:41.918Z,3.33
2023-02-16T18:13:11.539Z,3.70
2023-02-16T18:15:40.890Z,3.10
2023-02-16T18:18:08.550Z,3.17
2023-02-16T18:20:35.953Z,4.20
2023-02-16T18:23:03.251Z,4.43
2023-02-16T18:25:31.258Z,4.40
2023-02-16T18:27:58.667Z,3.83
2023-02-16T18:30:26.096Z,4.27
2023-02-16T18:32:53.545Z,3.93
2023-02-16T18:35:21.139Z,4.10
2023-02-16T18:37:48.949Z,4.50
2023-02-16T18:40:19.783Z,4.80
2023-02-16T18:42:48.066Z,3.60
2023-02-16T18:45:15.188Z,3.40
2023-02-16T18:47:45.157Z,2.80
2023-02-16T18:50:12.548Z,2.47
2023-02-16T18:52:42.475Z,2.60
2023-02-16T18:55:10.919Z,1.93
2023-02-16T18:57:38.648Z,1.90
2023-02-16T19:00:09.986Z,1.90
2023-02-16T19:02:37.329Z,2.00
2023-02-16T19:05:05.785Z,1.87
2023-02-16T19:07:33.356Z,2.67
2023-02-16T19:10:00.499Z,3.43
2023-02-16T19:12:27.653Z,3.90
2023-02-16T19:14:54.829Z,3.50
2023-02-16T19:17:21.961Z,3.23
2023-02-16T19:19:49.440Z,3.30
2023-02-16T19:22:16.612Z,2.97
2023-02-16T19:24:43.714Z,3.60
2023-02-16T19:27:10.950Z,3.50
2023-02-16T19:29:38.102Z,4.10
2023-02-16T19:32:05.901Z,3.57
2023-02-16T19:34:34.025Z,3.80
2023-02-16T19:37:01.271Z,3.57
2023-02-16T19:39:28.446Z,2.30
2023-02-16T19:41:55.675Z,2.53
2023-02-16T19:44:22.907Z,2.60
2023-02-16T19:46:50.204Z,3.00
2023-02-16T19:49:19.413Z,2.53
2023-02-16T19:51:47.771Z,2.40
2023-02-16T19:54:15.560Z,1.90
2023-02-16T19:56:42.859Z,1.40
2023-02-16T19:59:10.170Z,1.87
2023-02-16T20:01:37.402Z,1.80
2023-02-16T20:04:04.826Z,1.50
2023-02-16T20:06:41.750Z,1.50
2023-02-16T20:09:12.243Z,1.87
2023-02-16T20:11:40.950Z,1.77
2023-02-16T20:14:08.802Z,1.67
2023-02-16T20:16:36.017Z,1.33
2023-02-16T20:19:03.683Z,1.80
2023-02-16T20:21:31.170Z,2.07
2023-02-16T20:24:01.148Z,1.83
2023-02-16T20:26:37.572Z,2.93
2023-02-16T20:29:07.229Z,3.40
2023-02-16T20:31:41.220Z,4.53
2023-02-16T20:34:09.172Z,1.73
2023-02-16T20:36:37.208Z,2.07
2023-02-16T20:39:06.690Z,1.87
2023-02-16T20:41:34.227Z,2.10
2023-02-16T20:44:02.929Z,2.00
2023-02-16T20:46:30.563Z,1.60
2023-02-16T20:48:58.028Z,1.73
2023-02-16T20:51:25.262Z,1.43
2023-02-16T20:53:52.841Z,1.60
2023-02-16T20:56:22.722Z,1.50
2023-02-16T20:58:52.019Z,1.77
2023-02-16T21:01:33.979Z,0.80
2023-02-16T21:04:01.269Z,0.87
2023-02-16T21:06:28.542Z,0.90
2023-02-16T21:08:56.245Z,1.27
2023-02-16T21:11:24.156Z,1.87
2023-02-16T21:13:51.306Z,2.10
2023-02-16T21:16:18.519Z,1.40
2023-02-16T21:18:45.737Z,1.43
2023-02-16T21:21:15.695Z,1.50
2023-02-16T21:23:45.055Z,1.40
2023-02-16T21:26:12.687Z,1.57
2023-02-16T21:28:40.365Z,1.40
2023-02-16T21:31:10.684Z,1.23
2023-02-16T21:33:38.623Z,1.30
2023-02-16T21:36:11.901Z,1.27
2023-02-16T21:38:40.260Z,0.93
2023-02-16T21:41:25.782Z,1.03
2023-02-16T21:44:05.295Z,1.40
2023-02-16T21:46:35.634Z,1.60
2023-02-16T21:49:04.509Z,1.43
2023-02-16T21:51:35.340Z,1.30
2023-02-16T21:54:04.898Z,1.10
2023-02-16T21:56:41.600Z,1.90
2023-02-16T21:59:11.981Z,1.10
2023-02-16T22:01:42.686Z,1.13
2023-02-16T22:04:15.463Z,2.00
2023-02-16T22:06:45.226Z,1.40
2023-02-16T22:09:17.452Z,1.10
2023-02-16T22:11:45.608Z,0.87
2023-02-16T22:14:13.531Z,0.93
2023-02-16T22:16:40.806Z,0.93
2023-02-16T22:19:11.689Z,1.00
2023-02-16T22:21:41.890Z,0.97
2023-02-16T22:24:12.562Z,1.23
2023-02-16T22:26:40.075Z,0.90
2023-02-16T22:29:08.047Z,0.93
2023-02-16T22:31:36.326Z,0.90
2023-02-16T22:34:15.295Z,1.30
2023-02-16T22:36:43.152Z,1.20
2023-02-16T22:39:13.146Z,1.10
2023-02-16T22:41:40.565Z,1.10
2023-02-16T22:44:07.740Z,1.00
2023-02-16T22:46:34.879Z,1.10
2023-02-16T22:49:02.131Z,1.30
2023-02-16T22:51:30.592Z,0.90
2023-02-16T22:53:59.220Z,1.10
2023-02-16T22:56:29.953Z,0.90
2023-02-16T22:58:59.968Z,1.40
2023-02-16T23:01:29.712Z,1.40
2023-02-16T23:03:59.000Z,1.00
2023-02-16T23:06:32.629Z,0.90
2023-02-16T23:09:02.890Z,1.17
2023-02-16T23:11:30.159Z,0.93
2023-02-16T23:13:57.380Z,0.90
2023-02-16T23:16:27.194Z,1.23
2023-02-16T23:18:59.436Z,1.37
2023-02-16T23:21:28.915Z,1.50
2023-02-16T23:23:57.055Z,1.50
2023-02-16T23:26:26.505Z,1.33
2023-02-16T23:28:55.539Z,1.03
2023-02-16T23:31:23.211Z,1.60
2023-02-16T23:33:51.017Z,1.23
2023-02-16T23:36:18.408Z,1.10
2023-02-16T23:38:45.516Z,1.00
2023-02-16T23:41:14.107Z,1.23
2023-02-16T23:43:42.083Z,1.20
2023-02-16T23:46:10.121Z,1.37
2023-02-16T23:48:38.525Z,1.27
2023-02-16T23:51:06.068Z,0.93
2023-02-16T23:53:33.673Z,1.13
2023-02-16T23:56:02.043Z,1.30
2023-02-16T23:58:30.949Z,1.03
